Time;durP1;ratioP1;P1;durP2;ratioP2;P2;SDS_P1;SDS_P2;PMS_P1;PMS_P2;Temp;Humidity;BMP_temperature;BMP_pressure;BME280_temperature;BME280_humidity;BME280_pressure;Samples;Min_cycle;Max_cycle;Signal;HPM_P1;HPM_P2
2023/10/10 00:00:28;;;;;;;1.83;1.83;;;20.80;78.50;;;;;;5068633;28;43441;-70
2023/10/10 00:02:56;;;;;;;1.90;1.90;;;20.80;78.40;;;;;;5066554;28;43336;-70
2023/10/10 00:05:33;;;;;;;2.07;2.07;;;20.80;78.50;;;;;;5065455;28;43458;-70
2023/10/10 00:08:05;;;;;;;1.90;1.90;;;20.70;78.50;;;;;;5073599;28;45926;-70
2023/10/10 00:10:34;;;;;;;1.97;1.97;;;20.70;78.80;;;;;;5068718;28;43948;-70
2023/10/10 00:13:06;;;;;;;2.10;2.10;;;20.70;78.60;;;;;;5068844;28;43385;-70
2023/10/10 00:15:38;;;;;;;1.80;1.80;;;20.80;78.20;;;;;;5067927;28;43416;-70
2023/10/10 00:18:11;;;;;;;2.13;2.13;;;21.00;77.70;;;;;;5068682;28;43796;-69
2023/10/10 00:20:44;;;;;;;1.90;1.90;;;21.20;77.20;;;;;;5068661;28;43805;-69
2023/10/10 00:23:15;;;;;;;2.10;2.10;;;21.20;76.90;;;;;;5067384;28;43502;-69
2023/10/10 00:25:45;;;;;;;1.90;1.90;;;21.20;77.00;;;;;;5069162;28;43467;-71
2023/10/10 00:28:20;;;;;;;1.83;1.83;;;21.10;77.20;;;;;;5068818;28;43892;-71
2023/10/10 00:30:49;;;;;;;1.97;1.97;;;21.00;77.50;;;;;;5068651;28;43375;-70
2023/10/10 00:33:18;;;;;;;1.90;1.90;;;20.90;77.70;;;;;;5068639;28;43519;-69
2023/10/10 00:35:47;;;;;;;2.00;2.00;;;20.90;77.80;;;;;;5067451;28;43497;-69
2023/10/10 00:38:22;;;;;;;2.03;2.00;;;20.90;77.90;;;;;;5067174;28;45408;-69
2023/10/10 00:40:51;;;;;;;2.10;2.10;;;20.80;78.00;;;;;;5068661;28;43422;-71
2023/10/10 00:43:23;;;;;;;1.93;1.93;;;20.80;78.40;;;;;;5067068;28;43940;-71
2023/10/10 00:45:53;;;;;;;2.20;2.13;;;20.80;78.40;;;;;;5067024;28;44050;-70
2023/10/10 00:48:23;;;;;;;2.00;2.00;;;20.80;78.40;;;;;;5061811;28;45732;-70
2023/10/10 00:50:53;;;;;;;2.00;2.00;;;20.80;78.50;;;;;;5066517;28;43866;-69
2023/10/10 00:53:22;;;;;;;1.80;1.80;;;20.70;78.50;;;;;;5067239;28;43487;-70
2023/10/10 00:55:56;;;;;;;2.20;2.20;;;20.70;78.80;;;;;;5067379;28;43500;-70
2023/10/10 00:58:35;;;;;;;2.13;2.13;;;20.80;78.60;;;;;;5066046;28;45982;-69
2023/10/10 01:01:08;;;;;;;2.00;2.00;;;20.90;78.10;;;;;;5067035;28;44395;-70
2023/10/10 01:03:39;;;;;;;2.20;2.20;;;21.10;77.50;;;;;;5067622;28;43361;-70
2023/10/10 01:06:20;;;;;;;1.87;1.87;;;21.20;77.00;;;;;;5067197;28;43578;-70
2023/10/10 01:08:50;;;;;;;2.13;2.13;;;21.20;76.90;;;;;;5062192;28;43954;-69
2023/10/10 01:11:19;;;;;;;2.00;2.00;;;21.10;77.00;;;;;;5066306;28;45176;-69
2023/10/10 01:13:49;;;;;;;2.07;2.07;;;21.00;77.20;;;;;;5066824;28;43981;-76
2023/10/10 01:16:20;;;;;;;1.97;1.90;;;20.90;77.60;;;;;;5067785;28;43446;-70
2023/10/10 01:18:57;;;;;;;2.43;2.40;;;20.90;77.70;;;;;;5066721;28;43851;-70
2023/10/10 01:21:32;;;;;;;1.97;1.97;;;20.90;77.80;;;;;;5065654;28;44611;-69
2023/10/10 01:24:03;;;;;;;2.00;2.00;;;20.90;78.00;;;;;;5066121;28;43509;-70
2023/10/10 01:26:35;;;;;;;1.90;1.90;;;20.80;78.10;;;;;;5067579;28;43450;-70
2023/10/10 01:29:14;;;;;;;2.30;2.20;;;20.80;78.50;;;;;;5065746;28;46071;-70
2023/10/10 01:31:42;;;;;;;1.80;1.80;;;20.80;78.40;;;;;;5065898;28;44668;-70
2023/10/10 01:34:12;;;;;;;2.07;2.07;;;20.70;78.30;;;;;;5066079;28;43424;-70
2023/10/10 01:36:41;;;;;;;2.20;2.20;;;20.70;78.40;;;;;;5066641;28;43447;-70
2023/10/10 01:39:21;;;;;;;2.20;2.20;;;20.70;78.50;;;;;;5066037;28;45366;-70
2023/10/10 01:41:50;;;;;;;2.40;2.40;;;20.70;78.80;;;;;;5061000;28;44655;-70
2023/10/10 01:44:22;;;;;;;2.00;2.00;;;20.70;78.60;;;;;;5066018;28;43459;-70
2023/10/10 01:46:52;;;;;;;2.03;2.03;;;20.70;78.60;;;;;;5065151;28;43598;-70
2023/10/10 01:49:21;;;;;;;2.00;2.00;;;20.70;78.60;;;;;;5066152;28;44575;-70
2023/10/10 01:51:58;;;;;;;2.17;2.17;;;20.60;78.70;;;;;;5065632;28;44783;-70
2023/10/10 01:54:35;;;;;;;2.20;2.20;;;20.60;78.80;;;;;;5080196;28;43989;-70
2023/10/10 01:57:07;;;;;;;2.07;2.07;;;20.80;78.70;;;;;;5085630;28;43510;-70
2023/10/10 01:59:38;;;;;;;2.37;2.37;;;20.90;78.00;;;;;;5086442;28;43904;-70
2023/10/10 02:02:11;;;;;;;1.90;1.90;;;21.10;77.40;;;;;;5086374;28;44644;-70
2023/10/10 02:04:41;;;;;;;2.20;2.20;;;21.20;76.90;;;;;;5086790;28;43477;-69
2023/10/10 02:07:22;;;;;;;2.13;2.13;;;21.20;76.80;;;;;;5084248;28;43520;-68
2023/10/10 02:10:00;;;;;;;2.37;2.37;;;21.20;76.90;;;;;;5085886;28;45719;-69
2023/10/10 02:12:33;;;;;;;2.27;2.27;;;21.10;77.20;;;;;;5086506;28;44368;-69
2023/10/10 02:15:02;;;;;;;2.30;2.30;;;21.00;77.60;;;;;;5070884;28;43414;-66
2023/10/10 02:17:30;;;;;;;2.20;2.20;;;20.90;77.60;;;;;;5070897;28;43435;-65
2023/10/10 02:20:33;;;;;;;2.37;2.30;;;20.90;77.80;;;;;;5070358;28;45980;-66
2023/10/10 02:23:08;;;;;;;2.33;2.23;;;20.80;77.80;;;;;;5070951;28;43421;-66
2023/10/10 02:25:45;;;;;;;2.30;2.30;;;20.80;78.10;;;;;;5066849;28;43335;-66
2023/10/10 02:28:21;;;;;;;2.00;2.00;;;20.80;78.30;;;;;;5070533;28;43421;-66
2023/10/10 02:30:53;;;;;;;2.20;2.20;;;20.80;78.30;;;;;;5070418;28;45772;-66
2023/10/10 02:33:31;;;;;;;2.10;2.10;;;20.80;78.30;;;;;;5087213;28;45117;-67
2023/10/10 02:35:59;;;;;;;2.63;2.53;;;20.70;78.30;;;;;;5086488;28;43399;-67
2023/10/10 02:38:33;;;;;;;2.00;2.00;;;20.70;78.60;;;;;;5070775;28;43542;-67
2023/10/10 02:41:26;;;;;;;2.20;2.20;;;20.70;78.60;;;;;;5072762;28;43660;-67
2023/10/10 02:43:56;;;;;;;2.07;2.07;;;20.70;78.50;;;;;;5073099;28;44674;-66
2023/10/10 02:46:34;;;;;;;2.10;2.10;;;20.70;78.50;;;;;;5075207;28;43413;-66
2023/10/10 02:49:09;;;;;;;2.10;2.10;;;20.60;78.60;;;;;;5073708;28;43429;-66
2023/10/10 02:51:40;;;;;;;2.30;2.30;;;20.60;78.80;;;;;;5087655;27;45759;-66
2023/10/10 02:59:52;;;;;;;2.40;2.40;;;21.00;77.80;;;;;;5068057;28;43414;-66
2023/10/10 03:02:22;;;;;;;2.20;2.20;;;21.20;77.10;;;;;;5073183;28;45751;-66
2023/10/10 03:05:05;;;;;;;2.10;2.10;;;21.20;76.70;;;;;;5068625;28;44749;-70
2023/10/10 03:07:35;;;;;;;2.17;2.17;;;21.20;76.70;;;;;;5068573;28;43445;-70
2023/10/10 03:10:37;;;;;;;2.27;2.27;;;21.10;76.90;;;;;;5068847;28;43557;-69
2023/10/10 03:13:14;;;;;;;2.50;2.40;;;21.00;77.30;;;;;;5064262;28;45733;-70
2023/10/10 03:15:51;;;;;;;2.47;2.37;;;20.90;77.50;;;;;;5070027;28;43819;-69
2023/10/10 03:18:28;;;;;;;2.20;2.10;;;20.90;77.60;;;;;;5068233;28;43347;-69
2023/10/10 03:21:24;;;;;;;2.13;2.13;;;20.90;77.80;;;;;;5067919;28;44031;-70
2023/10/10 03:23:55;;;;;;;2.40;2.40;;;20.80;77.90;;;;;;5071514;28;46122;-67
2023/10/10 03:29:27;;;;;;;2.30;2.30;;;20.80;78.20;;;;;;5071616;28;43481;-66
2023/10/10 03:32:19;;;;;;;1.93;1.93;;;20.70;78.10;;;;;;5067395;28;43478;-66
2023/10/10 03:34:56;;;;;;;2.20;2.20;;;20.70;78.30;;;;;;5072577;28;43713;-66
2023/10/10 03:37:39;;;;;;;2.47;2.40;;;20.70;78.50;;;;;;5073847;28;43355;-66
2023/10/10 03:40:21;;;;;;;2.20;2.20;;;20.70;78.60;;;;;;5067323;28;43402;-67
2023/10/10 05:24:09;;;;;;;9.47;6.43;;;20.90;77.60;;;;;;5074467;28;43483;-70
2023/10/10 05:26:54;;;;;;;8.33;5.90;;;20.80;77.70;;;;;;5067900;28;43583;-71
2023/10/10 05:29:24;;;;;;;6.87;5.63;;;20.80;78.00;;;;;;5062039;28;43501;-70
2023/10/10 05:31:52;;;;;;;7.57;5.73;;;20.80;78.30;;;;;;5068137;28;43523;-70
2023/10/10 05:34:24;;;;;;;6.47;5.40;;;20.80;78.10;;;;;;5068047;28;43430;-71
2023/10/10 05:36:53;;;;;;;7.50;5.27;;;20.70;78.10;;;;;;5067256;28;43856;-75
2023/10/10 05:39:22;;;;;;;8.50;5.97;;;20.70;78.20;;;;;;5064883;28;43466;-70
2023/10/10 05:41:54;;;;;;;8.73;6.03;;;20.70;78.30;;;;;;5065944;28;43364;-70
2023/10/10 05:44:23;;;;;;;6.67;5.70;;;20.70;78.60;;;;;;5064747;28;43372;-66
2023/10/10 05:46:52;;;;;;;5.70;5.10;;;20.80;78.30;;;;;;5070775;28;43996;-66
2023/10/10 05:49:27;;;;;;;8.67;6.10;;;20.90;77.90;;;;;;5071446;28;43501;-66
2023/10/10 05:52:02;;;;;;;7.53;5.60;;;21.10;77.30;;;;;;5071335;28;43449;-66
2023/10/10 05:54:34;;;;;;;7.10;5.20;;;21.20;76.90;;;;;;5072396;28;43438;-66
2023/10/10 05:57:05;;;;;;;8.10;5.53;;;21.20;76.80;;;;;;5071767;28;44095;-66
2023/10/10 05:59:33;;;;;;;5.40;4.90;;;21.10;76.80;;;;;;5071851;28;43328;-66
2023/10/10 06:02:10;;;;;;;9.03;5.80;;;21.00;77.10;;;;;;5071283;28;43351;-67
2023/10/10 06:04:42;;;;;;;7.80;5.60;;;20.90;77.40;;;;;;5071987;28;43633;-66
2023/10/10 06:07:11;;;;;;;7.00;5.23;;;20.80;77.60;;;;;;5072139;28;43931;-66
2023/10/10 06:09:41;;;;;;;6.93;5.23;;;20.80;77.70;;;;;;5071754;28;43361;-67
2023/10/10 06:12:10;;;;;;;6.27;4.97;;;20.80;77.80;;;;;;5071552;28;43402;-66
2023/10/10 06:14:42;;;;;;;7.10;5.17;;;20.80;78.00;;;;;;5072760;28;43947;-66
2023/10/10 06:17:10;;;;;;;6.77;5.30;;;20.70;78.20;;;;;;5075188;28;43999;-66
2023/10/10 06:19:38;;;;;;;6.60;5.40;;;20.70;78.20;;;;;;5072831;28;44747;-66
2023/10/10 06:22:08;;;;;;;6.20;5.27;;;20.70;78.10;;;;;;5074872;28;43407;-66
2023/10/10 06:24:38;;;;;;;6.33;5.10;;;20.70;78.20;;;;;;5075414;28;43500;-66
2023/10/10 06:27:09;;;;;;;6.10;5.40;;;20.70;78.20;;;;;;5074649;28;43606;-66
2023/10/10 06:29:40;;;;;;;7.83;5.70;;;20.70;78.50;;;;;;5071735;28;43423;-66
2023/10/10 06:32:10;;;;;;;5.77;5.10;;;20.70;78.40;;;;;;5073266;28;43874;-66
2023/10/10 06:34:39;;;;;;;8.13;5.53;;;20.80;78.00;;;;;;5086957;28;43435;-70
2023/10/10 06:37:08;;;;;;;6.37;5.33;;;21.00;77.50;;;;;;5087825;28;44979;-70
2023/10/10 06:39:53;;;;;;;6.50;5.50;;;21.10;76.90;;;;;;5085534;28;43385;-69
2023/10/10 06:42:28;;;;;;;5.67;4.73;;;21.20;76.60;;;;;;5088714;28;43401;-69
2023/10/10 06:45:07;;;;;;;5.73;5.23;;;21.10;76.60;;;;;;5082477;28;43482;-69
2023/10/10 06:47:36;;;;;;;6.37;4.97;;;21.10;76.90;;;;;;5088335;28;43902;-69
2023/10/10 06:50:10;;;;;;;6.63;5.07;;;21.00;77.20;;;;;;5088782;28;43971;-69
2023/10/10 06:52:43;;;;;;;6.67;5.20;;;20.90;77.50;;;;;;5087893;28;43344;-66
2023/10/10 06:55:12;;;;;;;5.70;5.20;;;20.90;77.50;;;;;;5069328;28;43489;-71
2023/10/10 06:57:45;;;;;;;6.23;5.33;;;20.80;77.60;;;;;;5070525;28;43627;-71
2023/10/10 07:00:20;;;;;;;5.47;4.97;;;20.80;77.70;;;;;;5068793;28;43411;-71
2023/10/10 07:02:50;;;;;;;6.50;5.17;;;20.80;78.00;;;;;;5070084;28;44272;-72
2023/10/10 07:05:19;;;;;;;5.10;4.53;;;20.70;78.20;;;;;;5068974;28;43582;-72
2023/10/10 07:07:52;;;;;;;5.60;5.10;;;20.70;78.00;;;;;;5068377;28;45718;-71
2023/10/10 07:10:26;;;;;;;5.70;5.27;;;20.70;78.10;;;;;;5070079;28;43429;-70
2023/10/10 07:12:57;;;;;;;5.40;4.90;;;20.70;78.20;;;;;;5068753;28;43431;-71
2023/10/10 07:15:26;;;;;;;5.40;4.90;;;20.60;78.30;;;;;;5070721;28;43334;-70
2023/10/10 07:18:08;;;;;;;5.53;5.03;;;20.70;78.50;;;;;;5069906;28;43924;-71
2023/10/10 07:23:22;;;;;;;6.20;5.43;;;20.80;77.60;;;;;;5069720;28;43426;-71
2023/10/10 07:25:59;;;;;;;5.47;5.07;;;20.90;77.30;;;;;;5070258;28;43407;-72
2023/10/10 07:28:29;;;;;;;5.67;4.50;;;20.90;77.30;;;;;;5063830;28;43601;-71
2023/10/10 07:30:59;;;;;;;5.27;4.87;;;20.90;77.50;;;;;;5069804;28;43833;-72
2023/10/10 07:33:40;;;;;;;5.33;4.87;;;20.90;77.50;;;;;;5068567;28;44059;-72
2023/10/10 07:36:13;;;;;;;5.17;4.70;;;20.90;77.50;;;;;;5070130;28;43395;-71
2023/10/10 07:38:41;;;;;;;5.00;4.60;;;20.90;77.60;;;;;;5069597;28;44363;-71
2023/10/10 07:41:18;;;;;;;5.13;4.67;;;20.80;77.70;;;;;;5068087;28;44848;-72
2023/10/10 07:43:49;;;;;;;5.57;4.80;;;20.70;78.00;;;;;;5072021;28;43427;-66
2023/10/10 07:46:19;;;;;;;5.50;5.00;;;20.80;78.20;;;;;;5074197;28;43446;-66
2023/10/10 07:48:46;;;;;;;5.23;4.73;;;20.70;78.00;;;;;;5073670;28;43872;-66
2023/10/10 07:51:27;;;;;;;5.17;4.77;;;20.70;78.10;;;;;;5071769;28;44776;-66
2023/10/10 07:54:02;;;;;;;5.47;4.97;;;20.70;78.20;;;;;;5067337;28;43434;-67
2023/10/10 07:56:31;;;;;;;5.00;4.60;;;20.60;78.50;;;;;;5073982;28;43381;-66
2023/10/10 07:59:01;;;;;;;5.40;4.90;;;20.70;78.40;;;;;;5072833;28;43891;-66
2023/10/10 08:01:29;;;;;;;4.90;4.50;;;20.90;78.00;;;;;;5073274;28;43442;-66
2023/10/10 08:03:57;;;;;;;5.60;5.00;;;21.00;77.50;;;;;;5071006;28;43455;-72
2023/10/10 08:06:25;;;;;;;4.97;4.57;;;21.10;76.90;;;;;;5069252;28;43877;-71
2023/10/10 08:09:10;;;;;;;4.97;4.53;;;21.20;76.80;;;;;;5069201;28;45140;-71
2023/10/10 08:11:39;;;;;;;4.87;4.57;;;21.10;76.70;;;;;;5068329;28;43276;-71
2023/10/10 08:14:09;;;;;;;4.80;4.40;;;21.00;76.90;;;;;;5068482;28;44018;-72
2023/10/10 08:16:38;;;;;;;5.13;4.63;;;21.00;77.40;;;;;;5069936;28;43376;-73
2023/10/10 08:19:07;;;;;;;4.80;4.43;;;20.90;77.70;;;;;;5069238;28;43887;-73
2023/10/10 08:21:38;;;;;;;4.60;4.30;;;20.80;77.60;;;;;;5068815;28;43528;-72
2023/10/10 08:24:07;;;;;;;4.77;4.37;;;20.80;77.70;;;;;;5067514;28;43502;-72
2023/10/10 08:26:41;;;;;;;4.73;4.40;;;20.80;77.90;;;;;;5069081;28;43272;-72
2023/10/10 08:29:11;;;;;;;5.30;4.77;;;20.70;78.10;;;;;;5065046;28;45621;-72
2023/10/10 08:31:42;;;;;;;5.27;4.87;;;20.70;78.20;;;;;;5068081;28;44401;-72
2023/10/10 08:34:10;;;;;;;4.90;4.50;;;20.70;78.20;;;;;;5061346;28;43438;-72
2023/10/10 08:36:43;;;;;;;4.17;3.93;;;20.70;78.20;;;;;;5069005;28;43356;-71
2023/10/10 08:39:35;;;;;;;4.80;4.50;;;20.70;78.30;;;;;;5063649;28;43951;-72
2023/10/10 08:42:16;;;;;;;5.03;4.63;;;20.60;78.70;;;;;;5066391;28;43491;-72
2023/10/10 08:44:48;;;;;;;4.20;4.00;;;20.70;78.60;;;;;;5068646;28;43427;-72
2023/10/10 08:47:19;;;;;;;4.63;4.33;;;20.80;78.20;;;;;;5068870;28;43429;-73
2023/10/10 08:49:52;;;;;;;5.43;4.93;;;20.90;77.60;;;;;;5068521;28;43870;-72
2023/10/10 08:52:22;;;;;;;4.07;3.87;;;21.00;77.40;;;;;;5068473;28;43456;-72
2023/10/10 08:55:06;;;;;;;4.50;4.10;;;20.90;78.10;;;;;;5069193;28;43393;-70
2023/10/10 08:57:43;;;;;;;4.20;3.90;;;20.90;77.70;;;;;;5067131;28;43581;-70
2023/10/10 09:00:17;;;;;;;4.27;4.00;;;20.90;77.60;;;;;;5068083;28;43606;-70
2023/10/10 09:02:45;;;;;;;4.67;4.37;;;20.90;77.70;;;;;;5067963;28;44213;-70
2023/10/10 09:05:15;;;;;;;4.13;3.93;;;20.90;77.80;;;;;;5068336;28;43357;-70
2023/10/10 09:07:43;;;;;;;4.20;4.00;;;20.80;77.90;;;;;;5068199;28;43582;-70
2023/10/10 09:10:14;;;;;;;4.53;4.20;;;20.70;78.60;;;;;;5067688;28;43806;-70
2023/10/10 09:12:55;;;;;;;4.77;4.47;;;20.70;78.30;;;;;;5067850;28;44072;-70
2023/10/10 09:15:34;;;;;;;4.50;4.17;;;20.70;78.30;;;;;;5067403;28;44605;-70
2023/10/10 09:18:14;;;;;;;4.20;3.90;;;20.70;78.30;;;;;;5068571;28;43446;-70
2023/10/10 09:20:44;;;;;;;4.20;3.90;;;20.60;78.40;;;;;;5067748;28;43915;-70
2023/10/10 09:23:21;;;;;;;4.63;4.33;;;20.60;78.80;;;;;;5066462;28;44929;-70
2023/10/10 09:25:57;;;;;;;4.27;3.97;;;20.60;78.60;;;;;;5065242;28;43407;-70
2023/10/10 09:28:30;;;;;;;4.37;4.07;;;20.80;78.30;;;;;;5060765;28;43942;-70
2023/10/10 09:31:00;;;;;;;4.30;4.00;;;20.90;77.80;;;;;;5062654;28;43615;-70
2023/10/10 09:33:30;;;;;;;4.73;4.43;;;21.00;77.40;;;;;;5067766;28;43480;-70
2023/10/10 09:36:08;;;;;;;3.93;3.73;;;21.00;77.30;;;;;;5068224;28;43803;-70
2023/10/10 09:38:45;;;;;;;4.27;4.07;;;21.00;77.40;;;;;;5067866;28;43553;-70
2023/10/10 09:41:27;;;;;;;4.27;3.97;;;20.90;77.60;;;;;;5067447;28;43868;-70
2023/10/10 09:44:27;;;;;;;4.03;3.73;;;20.80;78.00;;;;;;5067589;28;44018;-70
2023/10/10 09:47:13;;;;;;;3.30;3.20;;;20.80;78.10;;;;;;5062358;28;44499;-70
2023/10/10 09:49:44;;;;;;;4.37;4.17;;;20.80;78.20;;;;;;5069027;28;43419;-75
2023/10/10 09:55:07;;;;;;;4.37;4.10;;;20.70;78.30;;;;;;5067458;28;43314;-70
2023/10/10 09:57:39;;;;;;;3.60;3.40;;;20.60;78.60;;;;;;5071314;28;43372;-70
2023/10/10 10:00:11;;;;;;;3.83;3.63;;;20.70;78.60;;;;;;5071739;28;44031;-70
2023/10/10 10:02:59;;;;;;;4.00;3.80;;;20.60;78.50;;;;;;5065955;28;43879;-70
2023/10/10 10:05:29;;;;;;;3.97;3.77;;;20.70;78.70;;;;;;5084474;28;43446;-70
2023/10/10 10:08:05;;;;;;;4.00;3.80;;;20.60;78.80;;;;;;5089735;28;43497;-70
2023/10/10 10:10:48;;;;;;;3.70;3.53;;;20.60;78.90;;;;;;5089746;28;43311;-69
2023/10/10 10:13:37;;;;;;;3.50;3.30;;;20.70;78.50;;;;;;5089082;28;43865;-69
2023/10/10 10:16:19;;;;;;;3.53;3.33;;;20.90;78.10;;;;;;5088823;28;44551;-70
2023/10/10 10:18:52;;;;;;;4.00;3.80;;;21.00;77.40;;;;;;5086004;28;43362;-70
2023/10/10 10:21:27;;;;;;;3.60;3.47;;;21.10;77.10;;;;;;5086256;28;43447;-70
2023/10/10 10:24:15;;;;;;;3.93;3.73;;;21.10;77.10;;;;;;5087115;28;43907;-70
2023/10/10 10:26:44;;;;;;;3.80;3.60;;;21.00;77.40;;;;;;5083645;28;43469;-70
2023/10/10 10:29:16;;;;;;;3.87;3.67;;;20.90;77.70;;;;;;5089009;28;43497;-70
2023/10/10 10:31:51;;;;;;;3.47;3.33;;;20.90;78.00;;;;;;5090301;28;43474;-70
2023/10/10 10:34:31;;;;;;;3.80;3.60;;;20.80;78.00;;;;;;5088012;28;45674;-70
2023/10/10 10:37:06;;;;;;;3.80;3.60;;;20.80;78.90;;;;;;5088937;28;43426;-70
2023/10/10 10:39:35;;;;;;;3.57;3.47;;;20.80;78.40;;;;;;5088639;28;43443;-70
2023/10/10 10:42:11;;;;;;;4.00;3.80;;;20.70;78.50;;;;;;5089242;28;43394;-70
2023/10/10 10:44:46;;;;;;;3.60;3.40;;;20.70;78.50;;;;;;5088586;28;43681;-70
2023/10/10 10:47:45;;;;;;;3.87;3.67;;;20.70;78.60;;;;;;5083012;28;43435;-70
2023/10/10 10:50:44;;;;;;;3.23;3.10;;;20.70;78.70;;;;;;5087612;28;43415;-69
2023/10/10 10:59:11;;;;;;;3.50;3.40;;;20.70;78.70;;;;;;5088758;28;44483;-69
2023/10/10 11:01:51;;;;;;;3.23;3.13;;;20.80;78.90;;;;;;5088467;28;43490;-70
2023/10/10 11:04:26;;;;;;;3.73;3.53;;;21.00;77.60;;;;;;5088489;28;43389;-70
2023/10/10 11:07:00;;;;;;;3.40;3.30;;;21.10;77.10;;;;;;5088397;28;43826;-70
2023/10/10 11:09:30;;;;;;;3.50;3.37;;;21.10;77.10;;;;;;5082750;28;43421;-70
2023/10/10 11:12:02;;;;;;;3.20;3.10;;;21.00;77.50;;;;;;5085156;28;43344;-70
2023/10/10 11:14:32;;;;;;;3.97;3.80;;;21.00;77.80;;;;;;5074013;28;43335;-70
2023/10/10 11:17:00;;;;;;;3.97;3.67;;;20.90;78.00;;;;;;5068639;28;43742;-71
2023/10/10 11:19:41;;;;;;;3.77;3.57;;;20.90;78.00;;;;;;5069279;28;43406;-70
2023/10/10 11:22:16;;;;;;;3.33;3.23;;;20.80;78.20;;;;;;5068587;28;43412;-70
2023/10/10 11:24:47;;;;;;;3.17;3.07;;;20.80;78.40;;;;;;5070094;28;43820;-70
2023/10/10 11:27:21;;;;;;;3.50;3.40;;;20.70;78.50;;;;;;5069693;28;43709;-70
2023/10/10 11:29:50;;;;;;;3.20;3.10;;;20.70;78.50;;;;;;5069981;28;43831;-70
2023/10/10 11:32:24;;;;;;;3.30;3.10;;;20.70;78.60;;;;;;5069731;28;43359;-70
2023/10/10 11:34:56;;;;;;;3.60;3.50;;;20.70;78.80;;;;;;5070929;28;43407;-70
2023/10/10 11:37:30;;;;;;;3.43;3.23;;;20.70;78.90;;;;;;5065196;28;43858;-70
2023/10/10 11:40:30;;;;;;;3.33;3.23;;;20.60;78.90;;;;;;5063989;28;43378;-70
2023/10/10 11:43:00;;;;;;;3.20;3.07;;;20.60;78.80;;;;;;5068575;28;43370;-70
2023/10/10 11:45:28;;;;;;;3.20;3.10;;;20.70;78.40;;;;;;5069586;28;43510;-70
2023/10/10 11:48:00;;;;;;;3.20;3.10;;;20.90;78.10;;;;;;5067572;28;45684;-70
2023/10/10 11:50:44;;;;;;;3.40;3.20;;;21.00;77.40;;;;;;5069073;28;43444;-70
2023/10/10 11:53:19;;;;;;;3.40;3.30;;;21.10;77.10;;;;;;5069485;28;43428;-70
2023/10/10 11:55:48;;;;;;;3.37;3.27;;;21.00;77.20;;;;;;5066466;28;43430;-70
2023/10/10 11:58:17;;;;;;;3.43;3.33;;;21.00;77.70;;;;;;5069049;28;43898;-70
2023/10/10 12:00:45;;;;;;;3.20;3.10;;;20.90;77.90;;;;;;5069196;28;43436;-70
2023/10/10 12:03:18;;;;;;;3.33;3.23;;;20.90;78.00;;;;;;5068940;28;43394;-70
2023/10/10 12:05:49;;;;;;;3.27;3.10;;;20.80;77.90;;;;;;5069300;28;43428;-70
2023/10/10 12:08:22;;;;;;;3.10;3.00;;;20.90;78.40;;;;;;5068829;28;43801;-69
2023/10/10 12:10:53;;;;;;;2.93;2.83;;;20.80;78.50;;;;;;5067731;28;45092;-70
2023/10/10 12:13:33;;;;;;;2.83;2.73;;;20.80;79.30;;;;;;5065527;28;43467;-70
2023/10/10 12:16:07;;;;;;;2.90;2.80;;;20.70;78.50;;;;;;5069004;28;43370;-70
2023/10/10 12:18:35;;;;;;;2.87;2.77;;;20.80;78.70;;;;;;5063590;28;43603;-70
2023/10/10 12:21:04;;;;;;;3.37;3.17;;;20.70;78.80;;;;;;5066935;28;44393;-70
2023/10/10 12:23:33;;;;;;;3.00;2.90;;;20.70;78.80;;;;;;5069747;28;43435;-72
2023/10/10 12:26:03;;;;;;;3.00;2.90;;;20.70;78.90;;;;;;5069469;28;43419;-71
2023/10/10 12:28:31;;;;;;;5.73;3.47;;;20.70;78.60;;;;;;5068774;28;44001;-71
2023/10/10 12:31:02;;;;;;;3.30;3.20;;;20.80;78.50;;;;;;5067395;28;44799;-71
2023/10/10 12:33:31;;;;;;;3.03;2.93;;;20.80;78.00;;;;;;5068845;28;43382;-71
2023/10/10 12:36:07;;;;;;;3.00;2.80;;;21.00;77.40;;;;;;5069139;28;44378;-72
2023/10/10 12:38:37;;;;;;;3.00;2.90;;;21.10;77.20;;;;;;5068770;28;43906;-72
2023/10/10 12:41:06;;;;;;;4.03;3.33;;;21.10;78.20;;;;;;5068579;28;43981;-72
2023/10/10 12:43:34;;;;;;;3.13;3.03;;;21.00;77.80;;;;;;5077199;28;43497;-70
2023/10/10 12:46:02;;;;;;;5.17;3.43;;;20.90;77.90;;;;;;5089376;28;43363;-70
2023/10/10 12:48:31;;;;;;;4.07;3.50;;;20.90;77.90;;;;;;5087474;28;45561;-70
2023/10/10 12:51:01;;;;;;;4.70;3.30;;;20.90;77.80;;;;;;5088694;28;43411;-70
2023/10/10 12:53:31;;;;;;;4.10;3.67;;;20.80;78.10;;;;;;5089503;28;43382;-70
2023/10/10 12:56:02;;;;;;;3.73;3.43;;;20.80;78.30;;;;;;5089838;28;44049;-70
2023/10/10 12:58:30;;;;;;;4.57;3.17;;;20.80;78.50;;;;;;5089201;28;43611;-70
2023/10/10 13:00:59;;;;;;;3.23;3.13;;;20.70;78.40;;;;;;5084929;28;43419;-70
2023/10/10 13:03:28;;;;;;;3.57;3.27;;;20.80;78.50;;;;;;5084640;28;43410;-70
2023/10/10 13:05:59;;;;;;;3.00;2.90;;;20.70;78.50;;;;;;5088092;28;43441;-70
2023/10/10 13:08:38;;;;;;;3.50;3.30;;;20.80;78.80;;;;;;5084613;28;43712;-70
2023/10/10 13:11:12;;;;;;;4.00;3.30;;;20.70;78.80;;;;;;5085169;28;43853;-70
2023/10/10 13:13:46;;;;;;;3.23;2.93;;;20.70;78.70;;;;;;5081764;28;43588;-70
2023/10/10 13:16:24;;;;;;;3.77;3.00;;;20.80;78.40;;;;;;5083474;28;43422;-70
2023/10/10 13:18:52;;;;;;;3.73;3.53;;;20.90;77.90;;;;;;5081705;28;43601;-70
2023/10/10 13:21:20;;;;;;;5.17;3.07;;;21.00;77.40;;;;;;5109349;27;45047;-70
2023/10/10 13:23:48;;;;;;;4.00;3.70;;;21.10;77.00;;;;;;5081139;28;43434;-70
2023/10/10 13:26:18;;;;;;;3.10;2.90;;;21.10;76.90;;;;;;5084202;28;43458;-70
2023/10/10 13:28:46;;;;;;;2.80;2.70;;;21.10;77.30;;;;;;5085090;28;46095;-70
2023/10/10 13:31:14;;;;;;;3.33;2.83;;;21.00;77.50;;;;;;5082244;28;43451;-70
2023/10/10 13:33:43;;;;;;;3.10;2.83;;;20.90;77.70;;;;;;5084087;28;44051;-70
2023/10/10 13:36:12;;;;;;;3.07;2.90;;;20.90;77.70;;;;;;5088692;28;43406;-70
2023/10/10 13:38:46;;;;;;;2.87;2.77;;;20.90;77.90;;;;;;5087339;28;43595;-70
2023/10/10 13:41:16;;;;;;;2.93;2.83;;;20.90;78.10;;;;;;5087463;28;43398;-70
2023/10/10 13:43:46;;;;;;;3.10;2.97;;;20.80;78.20;;;;;;5087509;28;43506;-70
2023/10/10 13:46:15;;;;;;;2.70;2.60;;;20.80;78.50;;;;;;5086755;28;43498;-70
2023/10/10 13:48:43;;;;;;;2.77;2.67;;;20.80;78.50;;;;;;5086844;28;43607;-70
2023/10/10 13:51:13;;;;;;;2.93;2.73;;;20.80;78.50;;;;;;5086343;28;43894;-69
2023/10/10 13:53:43;;;;;;;3.63;3.43;;;20.80;78.60;;;;;;5079974;28;43353;-66
2023/10/10 13:56:13;;;;;;;2.77;2.57;;;20.80;78.80;;;;;;5071966;28;43550;-66
2023/10/10 13:58:46;;;;;;;3.00;2.90;;;20.70;78.80;;;;;;5071844;28;44072;-66
2023/10/10 14:01:18;;;;;;;3.20;3.10;;;20.80;79.00;;;;;;5067573;28;43620;-66
2023/10/10 14:03:48;;;;;;;3.50;3.30;;;20.80;78.60;;;;;;5071674;28;43551;-66
2023/10/10 14:06:19;;;;;;;3.20;3.10;;;21.00;78.40;;;;;;5069967;28;43411;-66
2023/10/10 14:08:48;;;;;;;3.17;3.07;;;21.10;77.90;;;;;;5070138;28;45691;-66
2023/10/10 14:11:21;;;;;;;3.30;3.10;;;21.10;77.60;;;;;;5072213;28;43434;-67
2023/10/10 14:13:50;;;;;;;3.20;2.90;;;21.10;77.60;;;;;;5072272;28;43384;-67
2023/10/10 14:16:20;;;;;;;3.13;2.93;;;21.10;77.70;;;;;;5072363;28;43469;-67
2023/10/10 14:18:50;;;;;;;3.27;3.17;;;21.00;77.90;;;;;;5069635;28;44045;-67
2023/10/10 14:21:24;;;;;;;2.97;2.80;;;20.90;78.30;;;;;;5067485;28;45296;-67
2023/10/10 14:23:55;;;;;;;3.07;2.93;;;20.90;78.30;;;;;;5067241;28;43461;-67
2023/10/10 14:26:30;;;;;;;2.97;2.87;;;20.90;78.30;;;;;;5069173;28;43335;-66
2023/10/10 14:29:04;;;;;;;3.53;3.30;;;20.90;78.50;;;;;;5067789;28;43930;-65
2023/10/10 14:31:34;;;;;;;3.30;3.10;;;20.80;78.50;;;;;;5069243;28;43466;-66
2023/10/10 14:34:05;;;;;;;3.73;3.53;;;20.80;79.00;;;;;;5067489;28;44092;-67
2023/10/10 14:36:33;;;;;;;3.00;2.90;;;20.80;78.90;;;;;;5074636;28;43671;-68
2023/10/10 14:39:01;;;;;;;3.43;3.23;;;20.80;78.80;;;;;;5075323;28;43603;-67
2023/10/10 14:41:30;;;;;;;3.10;3.00;;;20.80;78.90;;;;;;5075608;28;43446;-68
2023/10/10 14:44:00;;;;;;;3.60;3.40;;;20.70;78.90;;;;;;5083314;28;43438;-70
2023/10/10 14:46:31;;;;;;;3.03;2.93;;;20.80;79.40;;;;;;5089458;28;43406;-70
2023/10/10 14:49:05;;;;;;;3.00;2.90;;;20.80;79.10;;;;;;5086364;28;45800;-71
2023/10/10 14:51:34;;;;;;;3.17;2.97;;;20.90;78.70;;;;;;5090344;28;43388;-70
2023/10/10 14:54:06;;;;;;;3.27;3.07;;;21.10;79.00;;;;;;5106688;28;43355;-70
2023/10/10 14:56:35;;;;;;;3.20;3.10;;;21.10;77.90;;;;;;5090589;28;43333;-70
2023/10/10 14:59:05;;;;;;;2.93;2.73;;;21.10;77.70;;;;;;5088855;28;43587;-71
2023/10/10 15:01:35;;;;;;;2.97;2.87;;;21.10;77.90;;;;;;5088478;28;45017;-71
2023/10/10 15:04:06;;;;;;;3.20;3.00;;;21.00;78.00;;;;;;5080219;28;43423;-67
2023/10/10 15:06:34;;;;;;;3.30;3.10;;;21.00;78.60;;;;;;5072315;28;43556;-67
2023/10/10 15:09:02;;;;;;;2.90;2.80;;;20.90;78.50;;;;;;5074442;28;43950;-67
2023/10/10 15:11:30;;;;;;;2.83;2.73;;;20.90;78.50;;;;;;5070924;28;44833;-68
2023/10/10 15:13:59;;;;;;;2.80;2.70;;;20.90;78.60;;;;;;5071780;28;43437;-66
2023/10/10 15:16:34;;;;;;;3.20;3.10;;;20.80;78.70;;;;;;5074793;28;43352;-66
2023/10/10 15:19:07;;;;;;;2.93;2.83;;;20.80;79.00;;;;;;5071137;28;46140;-66